Time;durP1;ratioP1;P1;durP2;ratioP2;P2;SDS_P1;SDS_P2;PMS_P1;PMS_P2;Temp;Humidity;BMP_temperature;BMP_pressure;BME280_temperature;BME280_humidity;BME280_pressure;Samples;Min_cycle;Max_cycle;Signal;HPM_P1;HPM_P2
2022/03/08 00:00:19;;;;;;;5.60;4.27;;;3.80;99.90;;;;;;5066514;28;20220;-75
2022/03/08 00:02:44;;;;;;;7.73;4.33;;;3.80;99.90;;;;;;5064342;28;20210;-75
2022/03/08 00:05:10;;;;;;;8.60;4.60;;;3.80;99.90;;;;;;5053027;28;20179;-76
2022/03/08 00:07:36;;;;;;;10.53;4.57;;;3.80;99.90;;;;;;5052936;28;20226;-76
2022/03/08 00:10:03;;;;;;;8.50;4.50;;;3.70;99.90;;;;;;5052098;28;20222;-75
2022/03/08 00:12:28;;;;;;;9.07;4.70;;;3.60;99.90;;;;;;5051369;28;20699;-76
2022/03/08 00:14:54;;;;;;;9.77;5.03;;;3.60;99.90;;;;;;5051515;28;20214;-76
2022/03/08 00:17:19;;;;;;;9.40;4.63;;;3.60;99.90;;;;;;5052444;28;20283;-75
2022/03/08 00:19:45;;;;;;;8.17;4.87;;;3.50;99.90;;;;;;5051022;28;20602;-75
2022/03/08 00:22:10;;;;;;;7.37;4.70;;;3.50;99.90;;;;;;5051536;28;20204;-76
2022/03/08 00:24:36;;;;;;;7.97;4.67;;;3.40;99.90;;;;;;5051134;28;20230;-76
2022/03/08 00:27:01;;;;;;;7.97;4.93;;;3.40;99.90;;;;;;5052685;28;20219;-76
2022/03/08 00:29:26;;;;;;;11.67;5.67;;;3.50;99.90;;;;;;5049724;28;20186;-74
2022/03/08 00:31:52;;;;;;;9.40;4.67;;;3.50;99.90;;;;;;5053611;28;20184;-75
2022/03/08 00:34:17;;;;;;;7.33;4.70;;;3.50;99.90;;;;;;5051722;28;20225;-75
2022/03/08 00:36:43;;;;;;;10.63;5.03;;;3.50;99.90;;;;;;5052712;28;20210;-75
2022/03/08 00:39:08;;;;;;;7.60;4.93;;;3.40;99.90;;;;;;5051534;28;20299;-76
2022/03/08 00:41:34;;;;;;;9.83;5.47;;;3.40;99.90;;;;;;5054393;28;20210;-75
2022/03/08 00:43:59;;;;;;;10.37;4.83;;;3.40;99.90;;;;;;5054225;28;20182;-76
2022/03/08 00:46:25;;;;;;;8.43;4.40;;;3.30;99.90;;;;;;5052206;28;20217;-76
2022/03/08 00:48:50;;;;;;;10.70;5.27;;;3.30;99.90;;;;;;5051326;28;20641;-76
2022/03/08 00:51:16;;;;;;;8.83;4.83;;;3.30;99.90;;;;;;5052096;28;20598;-76
2022/03/08 00:53:42;;;;;;;9.50;5.37;;;3.20;99.90;;;;;;5052339;28;20207;-76
2022/03/08 00:56:07;;;;;;;9.63;5.07;;;3.10;99.90;;;;;;5052732;28;20645;-76
2022/03/08 00:58:34;;;;;;;6.43;5.00;;;3.10;99.90;;;;;;5052181;28;20700;-76
2022/03/08 01:00:59;;;;;;;9.93;5.23;;;3.10;99.90;;;;;;5050851;28;20272;-75
2022/03/08 01:03:25;;;;;;;8.83;5.20;;;3.10;99.90;;;;;;5052054;28;20293;-76
2022/03/08 01:05:50;;;;;;;9.20;5.00;;;3.10;99.90;;;;;;5051616;28;20203;-75
2022/03/08 01:08:16;;;;;;;8.50;5.20;;;3.10;99.90;;;;;;5049924;28;20622;-75
2022/03/08 01:10:41;;;;;;;8.33;4.83;;;3.10;99.90;;;;;;5052498;28;20635;-76
2022/03/08 01:13:07;;;;;;;8.63;5.27;;;3.00;99.90;;;;;;5051818;28;20202;-75
2022/03/08 01:15:33;;;;;;;10.37;5.03;;;3.00;99.90;;;;;;5051610;28;20737;-76
2022/03/08 01:17:59;;;;;;;10.10;5.23;;;3.00;99.90;;;;;;5051030;28;20211;-75
2022/03/08 01:20:25;;;;;;;10.73;5.73;;;3.00;99.90;;;;;;5052447;28;20233;-75
2022/03/08 01:22:51;;;;;;;10.13;5.10;;;2.90;99.90;;;;;;5050993;28;20189;-75
2022/03/08 01:25:20;;;;;;;11.67;5.53;;;3.00;99.90;;;;;;5050391;28;20298;-75
2022/03/08 01:27:46;;;;;;;7.43;4.97;;;2.90;99.90;;;;;;5035214;28;20212;-75
2022/03/08 01:30:14;;;;;;;10.53;5.37;;;2.90;99.90;;;;;;5051607;28;20205;-75
2022/03/08 01:32:39;;;;;;;8.70;4.67;;;2.90;99.90;;;;;;5050337;28;20208;-75
2022/03/08 01:35:06;;;;;;;11.60;5.40;;;2.90;99.90;;;;;;5050701;28;20179;-76
2022/03/08 01:37:32;;;;;;;8.03;5.10;;;2.90;99.90;;;;;;5051210;28;20222;-76
2022/03/08 01:39:57;;;;;;;9.70;4.87;;;2.90;99.90;;;;;;5048925;28;20217;-76
2022/03/08 01:42:25;;;;;;;7.10;4.40;;;2.90;99.90;;;;;;5051458;28;20300;-75
2022/03/08 01:44:51;;;;;;;11.17;4.97;;;2.80;99.90;;;;;;5051454;28;20198;-76
2022/03/08 01:47:20;;;;;;;9.83;5.53;;;2.90;99.90;;;;;;5051142;28;20242;-76
2022/03/08 01:49:47;;;;;;;9.93;5.53;;;2.80;99.90;;;;;;5043937;28;20167;-76
2022/03/08 01:52:15;;;;;;;10.57;5.40;;;2.80;99.90;;;;;;5052202;28;20206;-76
2022/03/08 01:54:41;;;;;;;8.30;5.13;;;2.70;99.90;;;;;;5051074;28;20348;-75
2022/03/08 01:57:08;;;;;;;8.20;4.47;;;2.70;99.90;;;;;;5051770;28;20217;-76
2022/03/08 01:59:33;;;;;;;8.47;5.03;;;2.70;99.90;;;;;;5052159;28;20222;-76
2022/03/08 02:01:59;;;;;;;9.50;5.70;;;2.70;99.90;;;;;;5053474;28;20209;-75
2022/03/08 02:04:25;;;;;;;11.13;5.47;;;2.70;99.90;;;;;;5052906;28;20762;-75
2022/03/08 02:06:50;;;;;;;9.53;5.40;;;2.60;99.90;;;;;;5052375;28;20281;-76
2022/03/08 02:09:16;;;;;;;7.80;4.70;;;2.60;99.90;;;;;;5051160;28;20242;-76
2022/03/08 02:11:42;;;;;;;10.47;5.00;;;2.60;99.90;;;;;;5051720;28;20738;-76
2022/03/08 02:14:07;;;;;;;7.87;4.97;;;2.60;99.90;;;;;;5053907;28;20266;-75
2022/03/08 02:16:33;;;;;;;7.57;5.03;;;2.60;99.90;;;;;;5053038;28;20241;-75
2022/03/08 02:18:59;;;;;;;10.90;5.93;;;2.60;99.90;;;;;;5052035;28;20230;-75
2022/03/08 02:21:25;;;;;;;8.80;5.30;;;2.60;99.90;;;;;;5054995;28;20261;-75
2022/03/08 02:23:51;;;;;;;7.83;5.03;;;2.60;99.90;;;;;;5053939;28;20204;-75
2022/03/08 02:26:17;;;;;;;9.60;4.87;;;2.60;99.90;;;;;;5051653;28;20209;-76
2022/03/08 02:28:43;;;;;;;8.90;4.77;;;2.60;99.90;;;;;;5050571;28;20216;-76
2022/03/08 02:31:08;;;;;;;9.37;5.30;;;2.70;99.90;;;;;;5051429;28;20210;-75
2022/03/08 02:33:34;;;;;;;9.27;4.87;;;2.60;99.90;;;;;;5050666;28;20217;-76
2022/03/08 02:35:59;;;;;;;9.50;4.77;;;2.60;99.90;;;;;;5050220;28;20225;-76
2022/03/08 02:38:25;;;;;;;11.30;5.30;;;2.50;99.90;;;;;;5049380;28;20217;-76
2022/03/08 02:40:51;;;;;;;9.37;5.03;;;2.50;99.90;;;;;;5049694;28;20171;-76
2022/03/08 02:43:18;;;;;;;10.40;4.73;;;2.50;99.90;;;;;;5051102;28;20219;-75
2022/03/08 02:45:44;;;;;;;12.50;5.10;;;2.50;99.90;;;;;;5050886;28;20651;-75
2022/03/08 02:48:11;;;;;;;8.67;5.00;;;2.40;99.90;;;;;;5049692;28;20207;-76
2022/03/08 02:50:37;;;;;;;11.73;4.93;;;2.40;99.90;;;;;;5050436;28;20314;-76
2022/03/08 02:53:04;;;;;;;8.30;5.07;;;2.50;99.90;;;;;;5055109;28;20179;-76
2022/03/08 02:55:32;;;;;;;11.77;4.97;;;2.40;99.90;;;;;;5055216;28;20291;-76
2022/03/08 02:57:58;;;;;;;8.37;5.13;;;2.40;99.90;;;;;;5053340;28;20218;-75
2022/03/08 03:00:25;;;;;;;9.47;5.33;;;2.40;99.90;;;;;;5054071;28;20213;-76
2022/03/08 03:02:52;;;;;;;11.70;5.63;;;2.30;99.90;;;;;;5054246;28;20231;-76
2022/03/08 03:05:17;;;;;;;8.93;5.83;;;2.30;99.90;;;;;;5053402;28;20272;-74
2022/03/08 03:07:43;;;;;;;11.70;6.03;;;2.30;99.90;;;;;;5052775;28;20243;-74
2022/03/08 03:10:12;;;;;;;11.73;6.43;;;2.20;99.90;;;;;;5052231;28;20211;-74
2022/03/08 03:12:38;;;;;;;11.27;5.37;;;2.20;99.90;;;;;;5053037;28;20584;-74
2022/03/08 03:15:05;;;;;;;9.53;6.20;;;2.20;99.90;;;;;;5046684;28;20685;-74
2022/03/08 03:17:31;;;;;;;10.40;5.73;;;2.10;99.90;;;;;;5055473;28;20237;-75
2022/03/08 03:19:56;;;;;;;9.90;4.80;;;2.10;99.90;;;;;;5060329;28;20184;-75
2022/03/08 03:22:22;;;;;;;10.10;5.60;;;2.10;99.90;;;;;;5056108;28;20728;-74
2022/03/08 03:24:47;;;;;;;8.77;5.80;;;2.10;99.90;;;;;;5053474;28;20295;-75
2022/03/08 03:27:13;;;;;;;8.83;5.47;;;2.10;99.90;;;;;;5053660;28;20210;-74
2022/03/08 03:29:38;;;;;;;11.07;6.10;;;2.10;99.90;;;;;;5053091;28;20354;-75
2022/03/08 03:32:04;;;;;;;9.80;5.93;;;2.10;99.90;;;;;;5053968;28;20174;-75
2022/03/08 03:34:30;;;;;;;11.63;5.30;;;2.00;99.90;;;;;;5052783;28;20303;-75
2022/03/08 03:36:55;;;;;;;12.07;5.77;;;2.10;99.90;;;;;;5053210;28;20347;-75
2022/03/08 03:39:21;;;;;;;8.87;5.73;;;2.10;99.90;;;;;;5051040;28;20226;-74
2022/03/08 03:41:46;;;;;;;9.17;5.73;;;2.10;99.90;;;;;;5053309;28;20293;-75
2022/03/08 03:44:12;;;;;;;12.07;6.17;;;2.00;99.90;;;;;;5053664;28;20555;-75
2022/03/08 03:46:37;;;;;;;9.83;6.13;;;2.10;99.90;;;;;;5034340;28;20182;-74
2022/03/08 03:49:03;;;;;;;9.37;6.00;;;2.10;99.90;;;;;;5052251;28;20731;-75
2022/03/08 03:51:29;;;;;;;11.93;6.07;;;2.10;99.90;;;;;;5052829;28;20217;-75
2022/03/08 03:53:54;;;;;;;12.13;6.07;;;2.10;99.90;;;;;;5051557;28;20233;-75
2022/03/08 03:56:20;;;;;;;12.53;6.17;;;2.00;99.90;;;;;;5051718;28;20231;-75
2022/03/08 03:58:45;;;;;;;10.83;6.20;;;2.00;99.90;;;;;;5044146;28;20213;-75
2022/03/08 04:01:11;;;;;;;10.23;5.83;;;2.10;99.90;;;;;;5051716;28;20211;-73
2022/03/08 04:03:36;;;;;;;13.40;6.10;;;2.10;99.90;;;;;;5051644;28;20211;-76
2022/03/08 04:06:02;;;;;;;12.20;6.27;;;2.10;99.90;;;;;;5052475;28;20235;-74
2022/03/08 04:08:27;;;;;;;9.97;6.10;;;2.10;99.90;;;;;;5050380;28;20205;-74
2022/03/08 04:10:53;;;;;;;9.30;5.87;;;2.10;99.90;;;;;;5051871;28;20615;-74
2022/03/08 04:13:19;;;;;;;10.20;5.90;;;2.10;99.90;;;;;;5052426;28;20215;-74
2022/03/08 04:15:45;;;;;;;10.13;5.93;;;2.00;99.90;;;;;;5051108;28;20298;-75
2022/03/08 04:18:11;;;;;;;11.70;5.97;;;2.00;99.90;;;;;;5045569;28;20219;-74
2022/03/08 04:20:37;;;;;;;16.00;6.77;;;2.00;99.90;;;;;;5052602;28;20208;-75
2022/03/08 04:23:03;;;;;;;10.63;6.10;;;2.10;99.90;;;;;;5051393;28;20560;-75
2022/03/08 04:25:29;;;;;;;14.07;6.90;;;2.00;99.90;;;;;;5052313;28;20536;-75
2022/03/08 04:27:55;;;;;;;12.17;6.67;;;2.00;99.90;;;;;;5050487;28;20222;-75
2022/03/08 04:30:20;;;;;;;13.60;6.60;;;2.00;99.90;;;;;;5051832;28;20221;-74
2022/03/08 04:32:46;;;;;;;13.37;6.13;;;2.00;99.90;;;;;;5034665;28;20216;-75
2022/03/08 04:35:11;;;;;;;11.30;6.20;;;2.00;99.90;;;;;;5052170;28;20560;-75
2022/03/08 04:37:37;;;;;;;12.33;6.57;;;2.00;99.90;;;;;;5050771;28;20209;-75
2022/03/08 04:40:05;;;;;;;12.83;6.80;;;2.00;99.90;;;;;;5051721;28;20203;-76
2022/03/08 04:42:31;;;;;;;9.37;6.83;;;2.00;99.90;;;;;;5051837;28;20200;-76
2022/03/08 04:44:56;;;;;;;10.93;6.80;;;2.10;99.90;;;;;;5052022;28;20224;-75
2022/03/08 04:47:22;;;;;;;13.33;7.57;;;2.00;99.90;;;;;;5043691;28;20247;-75
2022/03/08 04:49:48;;;;;;;13.23;7.00;;;2.00;99.90;;;;;;5050323;28;20544;-74
2022/03/08 04:52:13;;;;;;;9.03;6.00;;;2.00;99.90;;;;;;5051900;28;20214;-74
2022/03/08 04:54:39;;;;;;;13.90;6.60;;;1.90;99.90;;;;;;5051472;28;20209;-74
2022/03/08 04:57:04;;;;;;;8.40;5.20;;;1.90;99.90;;;;;;5050218;28;20267;-74
2022/03/08 04:59:30;;;;;;;8.97;5.17;;;1.90;99.90;;;;;;5050855;28;20204;-75
2022/03/08 05:01:55;;;;;;;12.50;5.50;;;1.90;99.90;;;;;;5052401;28;20184;-75
2022/03/08 05:04:21;;;;;;;10.33;5.57;;;2.00;99.90;;;;;;5051532;28;20200;-72
2022/03/08 05:06:47;;;;;;;8.77;5.47;;;1.90;99.90;;;;;;5050466;28;20553;-75
2022/03/08 05:09:13;;;;;;;8.37;4.67;;;1.90;99.90;;;;;;5049382;28;20200;-75
2022/03/08 05:11:38;;;;;;;10.80;5.10;;;1.80;99.90;;;;;;5049961;28;20208;-74
2022/03/08 05:14:04;;;;;;;11.03;6.00;;;1.80;99.90;;;;;;5051695;28;20253;-73
2022/03/08 05:16:30;;;;;;;9.87;5.90;;;1.80;99.90;;;;;;5044985;28;20349;-74
2022/03/08 05:18:55;;;;;;;9.33;5.33;;;1.70;99.90;;;;;;5050414;28;20600;-74
2022/03/08 05:21:21;;;;;;;9.07;5.43;;;1.70;99.90;;;;;;5051112;28;20207;-73
2022/03/08 05:23:46;;;;;;;11.50;5.50;;;1.60;99.90;;;;;;5051144;28;20201;-74
2022/03/08 05:26:11;;;;;;;10.97;5.73;;;1.70;99.90;;;;;;5051290;28;20185;-75
2022/03/08 05:28:37;;;;;;;11.03;5.43;;;1.70;99.90;;;;;;5050781;28;20234;-75
2022/03/08 05:31:03;;;;;;;9.23;5.33;;;1.70;99.90;;;;;;5051096;28;20283;-75
2022/03/08 05:33:28;;;;;;;7.60;5.20;;;1.60;99.90;;;;;;5050811;28;20235;-74
2022/03/08 05:35:54;;;;;;;14.07;6.07;;;1.60;99.90;;;;;;5049511;28;20302;-75
2022/03/08 05:38:19;;;;;;;8.90;5.40;;;1.60;99.90;;;;;;5062236;22;20230;-74
2022/03/08 05:40:45;;;;;;;9.93;5.40;;;1.60;99.90;;;;;;5052261;28;20179;-74
2022/03/08 05:43:10;;;;;;;7.90;5.30;;;1.70;99.90;;;;;;5051606;28;20207;-73
2022/03/08 05:45:36;;;;;;;9.73;6.07;;;1.70;99.90;;;;;;5049371;28;20707;-72
2022/03/08 05:48:01;;;;;;;9.43;6.10;;;1.70;99.90;;;;;;5064152;28;20218;-74
2022/03/08 05:50:27;;;;;;;10.10;5.83;;;1.70;99.90;;;;;;5071549;28;20199;-74
2022/03/08 05:52:52;;;;;;;9.67;5.87;;;1.70;99.90;;;;;;5072038;28;20184;-74
2022/03/08 05:55:18;;;;;;;9.10;5.47;;;1.70;99.90;;;;;;5071272;28;20299;-75
2022/03/08 05:57:43;;;;;;;8.27;5.53;;;1.80;99.90;;;;;;5070877;28;20218;-74
2022/03/08 06:00:10;;;;;;;10.23;6.27;;;1.80;99.90;;;;;;5071242;28;20218;-74
2022/03/08 06:02:35;;;;;;;11.53;5.63;;;1.80;99.90;;;;;;5071693;28;20211;-74
2022/03/08 06:05:01;;;;;;;9.37;5.43;;;1.90;99.90;;;;;;5047416;28;20524;-74
2022/03/08 06:07:27;;;;;;;11.80;6.07;;;1.90;99.90;;;;;;5069394;28;20224;-75
2022/03/08 06:09:52;;;;;;;11.67;5.77;;;2.00;99.90;;;;;;5072103;28;20228;-74
2022/03/08 06:12:18;;;;;;;7.77;5.40;;;2.00;99.90;;;;;;5071658;28;20580;-73
2022/03/08 06:14:43;;;;;;;8.67;5.37;;;2.10;99.90;;;;;;5053681;28;20196;-74
2022/03/08 06:17:09;;;;;;;10.47;6.07;;;2.50;99.90;;;;;;5072328;28;20168;-74
2022/03/08 06:19:34;;;;;;;8.30;5.30;;;5.00;99.90;;;;;;5070550;28;20214;-74
2022/03/08 06:22:00;;;;;;;8.87;5.27;;;7.10;99.90;;;;;;5073729;28;20203;-75
2022/03/08 06:24:25;;;;;;;7.37;4.53;;;8.90;99.90;;;;;;5073748;28;20699;-77
2022/03/08 06:26:51;;;;;;;7.23;5.10;;;10.00;99.90;;;;;;5077786;28;20788;-75
2022/03/08 06:29:16;;;;;;;6.50;4.60;;;11.40;99.90;;;;;;5079415;28;20210;-74
2022/03/08 06:31:42;;;;;;;6.90;5.00;;;12.50;99.90;;;;;;5080694;28;20640;-76
2022/03/08 06:34:07;;;;;;;7.20;4.87;;;13.40;99.90;;;;;;5062049;28;20221;-75
2022/03/08 06:36:34;;;;;;;8.50;5.17;;;13.80;99.90;;;;;;5055902;28;20218;-75
2022/03/08 06:39:00;;;;;;;7.57;4.95;;;14.10;99.90;;;;;;5060511;28;20222;-75
2022/03/08 06:41:26;;;;;;;5.93;4.40;;;14.70;99.90;;;;;;5079451;28;20257;-75
2022/03/08 06:43:51;;;;;;;8.95;5.40;;;14.90;99.90;;;;;;5080361;28;20202;-75
2022/03/08 06:46:17;;;;;;;8.43;5.50;;;15.00;99.90;;;;;;5079761;28;20225;-76
2022/03/08 06:48:42;;;;;;;7.85;5.28;;;15.40;99.90;;;;;;5078929;28;20207;-75
2022/03/08 06:51:08;;;;;;;8.48;4.88;;;16.50;99.90;;;;;;5079096;28;20198;-74
2022/03/08 06:53:33;;;;;;;8.50;5.18;;;16.40;99.90;;;;;;5077964;28;20737;-74
2022/03/08 06:55:59;;;;;;;7.03;5.30;;;16.60;99.90;;;;;;5060561;28;20174;-74
2022/03/08 06:58:25;;;;;;;7.70;5.20;;;16.40;99.90;;;;;;5076992;28;20210;-74
2022/03/08 07:00:50;;;;;;;7.70;5.60;;;16.50;99.90;;;;;;5078313;28;20195;-76
2022/03/08 07:03:16;;;;;;;9.75;5.85;;;16.70;99.90;;;;;;5077968;28;20711;-74
2022/03/08 07:05:41;;;;;;;10.80;5.63;;;16.70;99.60;;;;;;5072051;28;20208;-74
2022/03/08 07:08:07;;;;;;;8.90;6.25;;;17.10;98.90;;;;;;5077952;28;20269;-75
2022/03/08 07:10:33;;;;;;;7.55;6.32;;;17.30;98.90;;;;;;5060051;28;20629;-74
2022/03/08 07:12:58;;;;;;;10.45;5.88;;;17.20;97.30;;;;;;5078313;28;20240;-74
2022/03/08 07:15:27;;;;;;;6.68;5.78;;;16.80;97.80;;;;;;5078543;28;20257;-74
2022/03/08 07:17:53;;;;;;;7.45;6.00;;;17.00;97.60;;;;;;5077018;28;20214;-74
2022/03/08 07:20:19;;;;;;;7.40;6.15;;;16.50;97.70;;;;;;5076183;28;20167;-75
2022/03/08 07:22:45;;;;;;;7.25;6.28;;;16.80;97.70;;;;;;5060080;28;20650;-75
2022/03/08 07:25:11;;;;;;;9.10;6.70;;;16.40;97.40;;;;;;5059617;28;20257;-74
2022/03/08 07:27:37;;;;;;;8.57;5.85;;;16.70;97.50;;;;;;5077400;28;20214;-75
2022/03/08 07:30:05;;;;;;;8.50;5.43;;;16.50;97.40;;;;;;5076762;28;20218;-76
2022/03/08 07:32:31;;;;;;;8.93;5.82;;;16.80;97.10;;;;;;5059336;28;20175;-75
2022/03/08 07:34:56;;;;;;;9.10;6.28;;;17.00;96.70;;;;;;5075571;28;20186;-74
2022/03/08 07:37:22;;;;;;;10.52;6.40;;;17.00;95.50;;;;;;5073335;28;20199;-75
2022/03/08 07:39:48;;;;;;;7.63;5.82;;;16.60;95.80;;;;;;5073726;28;20210;-75
2022/03/08 07:42:13;;;;;;;10.00;5.60;;;16.70;96.10;;;;;;5074577;28;20705;-75
2022/03/08 07:44:39;;;;;;;6.45;5.25;;;17.00;95.50;;;;;;5074136;28;20199;-75
2022/03/08 07:47:05;;;;;;;7.32;5.70;;;16.50;94.90;;;;;;5056951;28;20221;-75
2022/03/08 07:49:31;;;;;;;5.25;4.75;;;16.60;95.20;;;;;;5072917;28;20242;-74
2022/03/08 07:51:56;;;;;;;6.97;5.68;;;16.60;95.20;;;;;;5056575;28;20283;-75
2022/03/08 07:54:22;;;;;;;7.38;5.18;;;16.80;94.90;;;;;;5073821;28;20327;-75
2022/03/08 07:56:48;;;;;;;7.60;5.18;;;16.90;94.40;;;;;;5074325;28;20203;-75
2022/03/08 07:59:14;;;;;;;6.20;5.00;;;17.00;93.90;;;;;;5054928;28;20725;-74
2022/03/08 08:01:39;;;;;;;7.32;5.47;;;17.30;93.60;;;;;;5056321;28;20179;-76
2022/03/08 08:04:05;;;;;;;6.38;4.95;;;17.20;93.60;;;;;;5073530;28;20236;-75
2022/03/08 08:06:30;;;;;;;7.95;5.50;;;16.50;93.80;;;;;;5049835;28;20203;-75
2022/03/08 08:08:56;;;;;;;8.70;5.85;;;16.60;94.40;;;;;;5055191;28;20249;-76
2022/03/08 08:11:21;;;;;;;7.70;5.03;;;16.80;94.20;;;;;;5076781;28;20175;-77
2022/03/08 08:13:48;;;;;;;6.18;4.97;;;17.20;93.60;;;;;;5074478;28;20181;-76
2022/03/08 08:16:14;;;;;;;6.88;4.68;;;17.30;93.40;;;;;;5073906;28;20203;-76
2022/03/08 08:18:40;;;;;;;7.68;5.10;;;17.20;92.70;;;;;;5072322;28;20641;-75
2022/03/08 08:21:05;;;;;;;8.23;5.93;;;17.00;92.90;;;;;;5073849;28;20207;-75
2022/03/08 08:23:31;;;;;;;8.35;5.55;;;17.10;93.10;;;;;;5073361;28;20175;-75
2022/03/08 08:25:57;;;;;;;7.38;5.10;;;17.20;93.10;;;;;;5059316;28;20179;-75
2022/03/08 08:28:22;;;;;;;10.02;6.03;;;17.00;92.90;;;;;;5072064;28;20203;-76
2022/03/08 08:30:48;;;;;;;10.18;6.28;;;17.10;93.10;;;;;;5072423;28;20340;-75
2022/03/08 08:33:13;;;;;;;8.55;5.97;;;17.10;92.90;;;;;;5072130;28;20230;-73
2022/03/08 08:35:40;;;;;;;9.25;5.90;;;17.50;92.60;;;;;;5066179;28;20207;-75
2022/03/08 08:38:05;;;;;;;9.55;6.22;;;17.80;93.00;;;;;;5071695;28;20215;-74
2022/03/08 08:40:31;;;;;;;8.63;5.40;;;17.80;92.00;;;;;;5071892;28;20659;-76
2022/03/08 08:42:57;;;;;;;8.63;5.97;;;17.80;92.20;;;;;;5072167;28;20229;-74
2022/03/08 08:45:22;;;;;;;6.95;4.93;;;17.50;92.20;;;;;;5053252;28;20203;-75
2022/03/08 08:47:48;;;;;;;8.27;5.07;;;17.60;92.00;;;;;;5037543;28;20207;-75
2022/03/08 08:50:14;;;;;;;9.35;5.35;;;17.10;91.60;;;;;;5070911;28;20210;-75
2022/03/08 08:52:39;;;;;;;6.88;5.07;;;16.20;92.80;;;;;;5072238;28;20191;-75
2022/03/08 08:55:05;;;;;;;7.20;5.28;;;15.80;93.60;;;;;;5071749;28;20207;-75
2022/03/08 08:57:30;;;;;;;8.13;4.90;;;15.40;93.80;;;;;;5071394;28;20534;-75
2022/03/08 08:59:56;;;;;;;6.90;4.32;;;15.40;94.20;;;;;;5052942;28;20256;-75
2022/03/08 09:02:22;;;;;;;6.15;4.93;;;15.40;93.90;;;;;;5071517;28;20175;-75
2022/03/08 09:04:47;;;;;;;7.13;4.88;;;15.00;94.20;;;;;;5070956;28;20183;-75
2022/03/08 09:07:13;;;;;;;7.87;5.10;;;14.50;94.30;;;;;;5049187;28;20680;-74
2022/03/08 09:09:38;;;;;;;7.37;4.10;;;13.90;95.60;;;;;;5052401;28;20218;-73
2022/03/08 09:12:04;;;;;;;8.63;5.10;;;14.00;95.90;;;;;;5071456;28;20197;-75
2022/03/08 09:14:29;;;;;;;6.07;4.27;;;13.70;96.20;;;;;;5071111;28;20592;-76
2022/03/08 09:16:55;;;;;;;7.33;4.73;;;13.80;96.30;;;;;;5071803;28;20175;-75
2022/03/08 09:19:21;;;;;;;6.50;4.40;;;13.80;96.70;;;;;;5052255;28;20211;-75
2022/03/08 09:21:46;;;;;;;6.73;4.40;;;14.20;96.40;;;;;;5071306;28;20216;-75
2022/03/08 09:24:12;;;;;;;10.20;4.67;;;14.50;96.10;;;;;;5053147;28;20199;-76
2022/03/08 09:26:37;;;;;;;8.43;4.80;;;14.90;95.70;;;;;;5070893;28;20215;-74
2022/03/08 09:29:03;;;;;;;6.57;4.30;;;14.70;95.80;;;;;;5052903;28;20191;-75
2022/03/08 09:31:28;;;;;;;6.43;4.10;;;14.30;95.50;;;;;;5070935;28;20215;-74
2022/03/08 09:33:54;;;;;;;6.40;4.37;;;13.90;96.00;;;;;;5070951;28;20210;-74
2022/03/08 09:36:19;;;;;;;9.57;5.10;;;14.00;96.40;;;;;;5065083;28;20293;-75
2022/03/08 09:38:45;;;;;;;16.03;4.73;;;13.90;96.60;;;;;;5069752;28;20352;-75
2022/03/08 09:41:11;;;;;;;6.93;4.40;;;14.00;97.00;;;;;;5071263;28;20190;-75
2022/03/08 09:43:38;;;;;;;6.70;5.00;;;14.50;96.30;;;;;;5053244;28;20210;-75
2022/03/08 09:46:05;;;;;;;10.57;5.93;;;14.70;96.10;;;;;;5052812;28;20780;-75
2022/03/08 09:48:31;;;;;;;8.67;4.67;;;14.30;95.80;;;;;;5051890;28;20217;-75
2022/03/08 09:51:01;;;;;;;9.73;6.20;;;14.10;96.00;;;;;;5070847;28;20203;-76
2022/03/08 09:53:29;;;;;;;8.17;4.70;;;13.80;96.70;;;;;;5070405;28;20602;-75
2022/03/08 09:56:02;;;;;;;12.20;6.00;;;13.50;96.60;;;;;;5071376;28;20174;-75
2022/03/08 09:58:28;;;;;;;8.03;5.20;;;13.60;97.40;;;;;;5069099;28;20272;-75
2022/03/08 10:00:55;;;;;;;8.87;5.50;;;13.70;97.50;;;;;;5069736;28;20207;-75
2022/03/08 10:03:32;;;;;;;8.27;4.70;;;14.10;96.70;;;;;;5052554;28;20294;-74
2022/03/08 10:05:58;;;;;;;9.20;4.90;;;13.30;96.70;;;;;;5064847;28;20229;-75
2022/03/08 10:08:26;;;;;;;6.83;4.43;;;13.20;97.80;;;;;;5067695;28;20226;-74
2022/03/08 10:11:00;;;;;;;8.80;4.43;;;13.40;97.50;;;;;;5053539;28;20203;-73
2022/03/08 10:13:37;;;;;;;7.53;4.67;;;13.20;97.40;;;;;;5070567;28;20214;-77
2022/03/08 10:16:12;;;;;;;6.57;4.43;;;13.00;97.90;;;;;;5052416;28;20222;-77
2022/03/08 10:18:50;;;;;;;5.03;4.43;;;13.30;97.60;;;;;;5051299;28;20595;-74
2022/03/08 10:21:39;;;;;;;7.97;4.00;;;13.20;97.50;;;;;;5070466;28;20293;-76
2022/03/08 10:24:18;;;;;;;7.87;3.90;;;13.30;97.40;;;;;;5052257;28;20311;-73
2022/03/08 10:26:51;;;;;;;6.47;4.30;;;13.00;97.50;;;;;;5052154;28;20710;-77
2022/03/08 10:29:23;;;;;;;5.47;3.80;;;13.00;97.60;;;;;;5069248;28;20211;-78
2022/03/08 10:31:48;;;;;;;7.23;4.37;;;13.40;98.00;;;;;;5070891;28;20171;-77
2022/03/08 10:34:17;;;;;;;9.80;4.27;;;13.70;97.30;;;;;;5070347;28;20206;-77
2022/03/08 10:36:59;;;;;;;9.80;4.00;;;14.10;97.10;;;;;;5064442;28;20574;-77
2022/03/08 10:39:25;;;;;;;22.47;9.53;;;13.90;97.00;;;;;;5051180;28;20702;-74
2022/03/08 10:41:54;;;;;;;10.13;5.23;;;13.80;96.70;;;;;;5070189;28;20784;-74
2022/03/08 10:44:41;;;;;;;6.17;4.17;;;13.70;96.50;;;;;;5070124;28;20740;-74
2022/03/08 10:47:14;;;;;;;12.03;6.43;;;13.40;96.50;;;;;;5070690;28;20178;-75
2022/03/08 10:49:54;;;;;;;7.77;4.33;;;13.20;96.70;;;;;;5069244;28;20637;-74
2022/03/08 10:52:28;;;;;;;5.90;3.73;;;13.20;97.00;;;;;;5052227;28;20206;-75
2022/03/08 10:54:54;;;;;;;8.10;4.10;;;13.20;97.40;;;;;;5070071;28;20210;-75
2022/03/08 10:57:19;;;;;;;6.50;3.47;;;13.10;97.70;;;;;;5052180;28;20203;-75
2022/03/08 10:59:55;;;;;;;5.77;3.37;;;13.00;97.20;;;;;;5069003;28;20218;-75
2022/03/08 11:02:22;;;;;;;6.93;3.90;;;13.00;97.40;;;;;;5069974;28;20183;-74
2022/03/08 11:04:48;;;;;;;5.37;3.60;;;13.10;97.90;;;;;;5069075;28;20908;-75
2022/03/08 11:07:14;;;;;;;6.93;3.57;;;13.00;97.50;;;;;;5047841;28;20206;-74
2022/03/08 11:09:41;;;;;;;5.27;3.97;;;12.70;97.50;;;;;;5050863;28;20211;-75
2022/03/08 11:12:07;;;;;;;4.20;3.63;;;12.90;97.90;;;;;;5052318;28;20211;-75
2022/03/08 11:14:33;;;;;;;7.73;3.50;;;12.50;97.70;;;;;;5073264;28;20580;-75
2022/03/08 11:17:00;;;;;;;6.17;3.80;;;12.80;98.00;;;;;;5056486;28;20261;-75
2022/03/08 11:19:28;;;;;;;7.33;3.63;;;12.70;97.60;;;;;;5054770;28;20223;-76
2022/03/08 11:21:56;;;;;;;7.83;4.00;;;12.70;98.10;;;;;;5055763;28;20580;-75
2022/03/08 11:24:22;;;;;;;4.60;2.87;;;12.90;98.10;;;;;;5073375;28;20687;-75
2022/03/08 11:26:48;;;;;;;4.07;3.30;;;12.80;97.40;;;;;;5073509;28;20199;-75
2022/03/08 11:29:15;;;;;;;4.33;2.80;;;12.90;97.70;;;;;;5072758;28;20194;-75
2022/03/08 11:31:42;;;;;;;4.60;2.83;;;13.10;97.50;;;;;;5073863;28;20647;-75
2022/03/08 11:34:18;;;;;;;4.80;3.10;;;13.20;97.30;;;;;;5073445;28;20207;-76
2022/03/08 11:37:01;;;;;;;5.03;2.87;;;13.10;96.70;;;;;;5049384;28;20565;-76
2022/03/08 11:39:28;;;;;;;6.03;3.37;;;12.70;97.10;;;;;;5081367;22;20227;-77
2022/03/08 11:42:20;;;;;;;5.63;2.70;;;12.40;97.70;;;;;;5068985;28;20663;-77
2022/03/08 11:45:00;;;;;;;5.03;2.93;;;11.90;97.80;;;;;;5075125;28;20214;-77
2022/03/08 11:47:45;;;;;;;5.80;2.90;;;11.80;98.10;;;;;;5075111;28;20194;-78
2022/03/08 11:50:39;;;;;;;4.63;3.33;;;11.90;98.40;;;;;;5066878;28;20380;-77
2022/03/08 11:53:23;;;;;;;7.03;2.90;;;12.00;98.60;;;;;;5058405;28;20572;-77
2022/03/08 11:55:55;;;;;;;4.37;2.80;;;12.30;98.40;;;;;;5075307;28;20257;-77
2022/03/08 11:58:23;;;;;;;3.93;2.70;;;12.60;98.10;;;;;;5074304;28;20218;-78
2022/03/08 12:00:54;;;;;;;4.73;2.73;;;12.70;97.90;;;;;;5073560;28;20810;-77
2022/03/08 12:03:22;;;;;;;5.47;2.87;;;12.60;97.10;;;;;;5072164;28;20210;-77
2022/03/08 12:06:01;;;;;;;4.80;2.67;;;12.60;97.30;;;;;;5054682;28;20573;-77
2022/03/08 12:08:29;;;;;;;5.60;2.90;;;12.50;97.10;;;;;;5063837;28;20236;-77
2022/03/08 12:11:12;;;;;;;4.77;2.80;;;12.50;97.30;;;;;;5077094;28;20182;-77
2022/03/08 12:13:39;;;;;;;4.83;2.80;;;12.50;97.80;;;;;;5068307;28;20241;-78
2022/03/08 12:16:08;;;;;;;4.40;2.70;;;12.60;97.40;;;;;;5072255;28;20206;-78
2022/03/08 12:18:38;;;;;;;4.10;2.93;;;12.60;97.40;;;;;;5064488;28;20214;-77
2022/03/08 12:21:19;;;;;;;3.93;2.80;;;12.60;97.30;;;;;;5073584;28;20693;-76
2022/03/08 12:23:53;;;;;;;5.83;2.73;;;12.50;97.30;;;;;;5066579;28;20206;-77
2022/03/08 12:26:23;;;;;;;2.93;2.30;;;12.30;97.00;;;;;;5074501;28;20175;-76
2022/03/08 12:29:10;;;;;;;3.87;2.90;;;12.00;97.10;;;;;;5058353;28;20273;-77
2022/03/08 12:32:11;;;;;;;3.10;2.30;;;11.70;97.40;;;;;;5066481;28;20207;-76
2022/03/08 12:34:39;;;;;;;3.80;2.33;;;11.70;97.80;;;;;;5073969;28;20212;-76
2022/03/08 12:37:10;;;;;;;4.50;2.73;;;12.10;98.30;;;;;;5061766;28;20629;-77
2022/03/08 12:39:51;;;;;;;4.77;2.47;;;12.30;97.70;;;;;;5071193;28;20309;-77
2022/03/08 12:42:33;;;;;;;5.47;2.77;;;12.40;97.50;;;;;;5073027;28;20207;-77
2022/03/08 12:45:08;;;;;;;3.83;2.13;;;12.50;97.20;;;;;;5059862;28;20204;-77
2022/03/08 12:47:46;;;;;;;2.70;2.10;;;12.50;97.30;;;;;;5072617;28;20225;-77
2022/03/08 12:50:14;;;;;;;4.30;2.67;;;12.60;97.00;;;;;;5072608;28;20198;-77